createdAt,value
2023-01-01T00:02:42.604Z,975.81
2023-01-01T00:08:18.162Z,975.67
2023-01-01T00:13:49.920Z,975.99
2023-01-01T00:19:21.517Z,976.02
2023-01-01T00:24:53.538Z,976.05
2023-01-01T00:30:25.160Z,976.13
2023-01-01T00:35:57.028Z,976.22
2023-01-01T00:41:28.774Z,976.22
2023-01-01T00:47:00.587Z,976.25
2023-01-01T00:52:31.886Z,976.22
2023-01-01T00:58:03.868Z,976.3
2023-01-01T01:03:35.152Z,976.36
2023-01-01T01:09:12.573Z,976.45
2023-01-01T01:14:43.272Z,976.17
2023-01-01T01:20:14.875Z,976.37
2023-01-01T01:25:46.644Z,976.42
2023-01-01T01:31:19.330Z,976.6
2023-01-01T01:36:50.004Z,976.25
2023-01-01T01:42:21.623Z,976.53
2023-01-01T01:47:53.381Z,976.84
2023-01-01T01:53:25.524Z,976.63
2023-01-01T01:58:58.268Z,976.41
2023-01-01T02:04:28.765Z,976.66
2023-01-01T02:10:05.571Z,976.59
2023-01-01T02:15:36.682Z,976.76
2023-01-01T02:21:08.719Z,976.47
2023-01-01T02:26:40.251Z,976.37
2023-01-01T02:32:11.620Z,976.3
2023-01-01T02:37:44.167Z,976.67
2023-01-01T02:43:23.108Z,976.66
2023-01-01T02:48:46.910Z,976.77
2023-01-01T02:54:18.814Z,976.83
2023-01-01T02:59:50.609Z,977.02
2023-01-01T03:05:22.091Z,977.05
2023-01-01T03:11:00.223Z,976.84
2023-01-01T03:16:31.669Z,976.97
2023-01-01T03:22:03.632Z,977.06
2023-01-01T03:27:35.567Z,976.57
2023-01-01T03:33:06.980Z,976.96
2023-01-01T03:38:38.673Z,976.89
2023-01-01T03:44:10.444Z,976.85
2023-01-01T03:49:42.042Z,976.17
2023-01-01T03:55:14.180Z,976.26
2023-01-01T04:00:45.396Z,976.1
2023-01-01T04:06:17.140Z,976.37
2023-01-01T04:11:53.645Z,976.18
2023-01-01T04:17:25.068Z,975.96
2023-01-01T04:22:58.296Z,975.93
2023-01-01T04:28:29.038Z,975.71
2023-01-01T04:34:00.261Z,975.87
2023-01-01T04:39:31.884Z,975.99
2023-01-01T04:45:03.719Z,975.97
2023-01-01T04:50:35.360Z,975.72
2023-01-01T04:56:07.018Z,975.61
2023-01-01T05:01:39.435Z,975.78
2023-01-01T05:07:10.392Z,975.72
2023-01-01T05:12:48.536Z,975.57
2023-01-01T05:18:20.333Z,975.67
2023-01-01T05:23:52.051Z,976.02
2023-01-01T05:29:23.703Z,975.96
2023-01-01T05:34:55.931Z,976.33
2023-01-01T05:40:27.220Z,976.19
2023-01-01T05:45:58.927Z,976.52
2023-01-01T05:57:02.428Z,976.59
2023-01-01T06:02:34.102Z,976.72
2023-01-01T06:08:05.641Z,976.79
2023-01-01T06:13:41.752Z,976.64
2023-01-01T06:19:13.622Z,976.79
2023-01-01T06:24:45.284Z,976.83
2023-01-01T06:30:16.956Z,977.13
2023-01-01T06:35:48.736Z,977.04
2023-01-01T06:41:20.505Z,977.22
2023-01-01T06:46:52.108Z,977.22
2023-01-01T06:52:23.885Z,977.03
2023-01-01T06:57:55.668Z,977.15
2023-01-01T07:03:27.554Z,976.91
2023-01-01T07:08:59.234Z,977.09
2023-01-01T07:14:35.130Z,977.33
2023-01-01T07:20:07.084Z,976.89
2023-01-01T07:25:38.656Z,976.26
2023-01-01T07:31:10.964Z,976.38
2023-01-01T07:36:42.107Z,976.4
2023-01-01T07:42:13.859Z,976.66
2023-01-01T07:47:45.628Z,976.96
2023-01-01T07:53:17.252Z,977.14
2023-01-01T07:58:49.124Z,977.45
2023-01-01T08:04:20.804Z,977.56
2023-01-01T08:09:52.456Z,977.79
2023-01-01T08:15:28.742Z,977.88
2023-01-01T08:21:00.468Z,978.0
2023-01-01T08:26:31.978Z,978.3
2023-01-01T08:32:03.761Z,978.68
2023-01-01T08:37:35.959Z,978.41
2023-01-01T08:43:07.272Z,978.78
2023-01-01T08:48:38.985Z,978.92
2023-01-01T08:54:11.079Z,978.79
2023-01-01T08:59:42.596Z,979.24
2023-01-01T09:05:14.165Z,979.1
2023-01-01T09:10:45.875Z,979.51
2023-01-01T09:16:22.188Z,979.8
2023-01-01T09:21:53.843Z,979.82
2023-01-01T09:27:25.592Z,979.58
2023-01-01T09:32:57.091Z,979.58
2023-01-01T09:38:28.768Z,979.65
2023-01-01T09:44:00.951Z,979.95
2023-01-01T09:49:32.428Z,980.3
2023-01-01T09:55:04.123Z,980.14
2023-01-01T10:00:36.342Z,980.45
2023-01-01T10:06:07.680Z,980.67
2023-01-01T10:11:39.277Z,980.53
2023-01-01T10:17:15.421Z,980.68
2023-01-01T10:22:47.339Z,980.85
2023-01-01T10:28:19.140Z,980.85
2023-01-01T10:33:50.619Z,980.96
2023-01-01T10:39:22.348Z,981.17
2023-01-01T10:44:54.093Z,980.92
2023-01-01T10:50:25.802Z,981.12
2023-01-01T10:55:57.325Z,981.51
2023-01-01T11:01:29.570Z,981.42
2023-01-01T11:07:00.989Z,981.58
2023-01-01T11:13:06.861Z,981.63
2023-01-01T11:18:10.812Z,981.6
2023-01-01T11:23:42.404Z,981.93
2023-01-01T11:29:14.153Z,981.75
2023-01-01T11:34:45.694Z,981.72
2023-01-01T11:40:17.569Z,981.59
2023-01-01T11:45:49.431Z,981.57
2023-01-01T11:51:21.109Z,981.72
2023-01-01T11:56:52.694Z,981.28
2023-01-01T12:02:24.486Z,981.4
2023-01-01T12:07:56.293Z,981.86
2023-01-01T12:13:27.949Z,981.46
2023-01-01T12:19:06.334Z,982.32
2023-01-01T12:24:37.772Z,981.48
2023-01-01T12:30:09.613Z,981.43
2023-01-01T12:35:41.283Z,980.89
2023-01-01T12:41:13.191Z,980.38
2023-01-01T12:46:44.908Z,980.44
2023-01-01T12:52:16.471Z,979.57
2023-01-01T12:57:48.264Z,980.0
2023-01-01T13:03:20.491Z,980.02
2023-01-01T13:08:51.690Z,979.95
2023-01-01T13:14:23.352Z,979.6
2023-01-01T13:19:59.513Z,979.85
2023-01-01T13:25:31.172Z,979.71
2023-01-01T13:31:02.941Z,980.49
2023-01-01T13:36:34.553Z,979.94
2023-01-01T13:42:06.330Z,979.68
2023-01-01T13:47:38.094Z,978.65
2023-01-01T13:53:09.785Z,978.61
2023-01-01T13:58:41.415Z,978.45
2023-01-01T14:04:13.072Z,978.36
2023-01-01T14:09:45.124Z,978.55
2023-01-01T14:15:16.771Z,979.05
2023-01-01T14:20:52.791Z,979.14
2023-01-01T14:26:24.586Z,978.99
2023-01-01T14:31:56.301Z,979.16
2023-01-01T14:37:28.100Z,979.09
2023-01-01T14:42:59.716Z,978.53
2023-01-01T14:48:31.336Z,978.46
2023-01-01T14:54:03.244Z,978.18
2023-01-01T14:59:35.056Z,978.4
2023-01-01T15:05:06.697Z,978.41
2023-01-01T15:10:38.445Z,978.53
2023-01-01T15:16:10.239Z,978.48
2023-01-01T15:21:48.214Z,977.98
2023-01-01T15:27:20.177Z,977.41
2023-01-01T15:32:51.649Z,977.3
2023-01-01T15:38:23.305Z,977.01
2023-01-01T15:43:55.507Z,976.7
2023-01-01T15:49:26.818Z,976.5
2023-01-01T15:54:58.361Z,976.4
2023-01-01T16:00:30.230Z,976.55
2023-01-01T16:06:01.825Z,976.15
2023-01-01T16:11:33.639Z,975.76
2023-01-01T16:17:05.423Z,975.44
2023-01-01T16:22:43.384Z,975.71
2023-01-01T16:28:15.164Z,975.87
2023-01-01T16:33:46.845Z,975.32
2023-01-01T16:39:18.641Z,975.16
2023-01-01T16:44:50.252Z,974.86
2023-01-01T16:50:21.934Z,974.75
2023-01-01T16:55:53.796Z,974.96
2023-01-01T17:01:26.117Z,974.68
2023-01-01T17:06:57.329Z,974.23
2023-01-01T17:12:29.281Z,975.05
2023-01-01T17:18:01.067Z,974.69
2023-01-01T17:23:36.933Z,974.76
2023-01-01T17:29:08.790Z,974.64
2023-01-01T17:34:40.382Z,975.24
2023-01-01T17:40:12.008Z,975.01
2023-01-01T17:45:43.764Z,975.15
2023-01-01T17:51:15.679Z,975.05
2023-01-01T17:56:47.699Z,974.45
2023-01-01T18:02:19.665Z,974.34
2023-01-01T18:07:50.705Z,974.7
2023-01-01T18:13:22.376Z,974.59
2023-01-01T18:18:54.215Z,974.47
2023-01-01T18:24:30.222Z,973.96
2023-01-01T18:30:02.060Z,973.77
2023-01-01T18:35:33.529Z,974.14
2023-01-01T18:41:05.331Z,974.43
2023-01-01T18:46:37.207Z,974.53
2023-01-01T18:52:08.827Z,974.0
2023-01-01T18:57:40.483Z,973.68
2023-01-01T19:03:12.504Z,973.67
2023-01-01T19:08:44.231Z,973.66
2023-01-01T19:14:15.682Z,973.84
2023-01-01T19:19:47.336Z,974.06
2023-01-01T19:25:23.477Z,974.47
2023-01-01T19:30:55.395Z,975.08
2023-01-01T19:36:27.161Z,975.35
2023-01-01T19:41:58.893Z,975.35
2023-01-01T19:47:30.476Z,975.5
2023-01-01T19:53:02.347Z,975.14
2023-01-01T19:58:34.071Z,975.43
2023-01-01T20:04:06.148Z,975.36
2023-01-01T20:09:37.459Z,975.34
2023-01-01T20:15:09.207Z,975.01
2023-01-01T20:20:40.809Z,975.42
2023-01-01T20:26:19.372Z,975.24
2023-01-01T20:31:50.971Z,975.05
2023-01-01T20:37:22.348Z,974.9
2023-01-01T20:42:54.448Z,974.69
2023-01-01T20:48:25.727Z,974.94
2023-01-01T20:53:57.473Z,974.63
2023-01-01T20:59:39.159Z,974.63
2023-01-01T21:05:00.986Z,974.18
2023-01-01T21:10:32.727Z,974.16
2023-01-01T21:16:04.427Z,974.48
2023-01-01T21:21:36.168Z,974.58
2023-01-01T21:27:12.098Z,974.7
2023-01-01T21:32:43.862Z,974.98
2023-01-01T21:38:17.195Z,975.07
2023-01-01T21:43:47.326Z,975.29
2023-01-01T21:49:19.072Z,975.53
2023-01-01T21:54:50.714Z,975.67
2023-01-01T22:00:22.801Z,975.4
2023-01-01T22:06:00.247Z,975.31
2023-01-01T22:11:26.085Z,975.34
2023-01-01T22:16:58.591Z,974.65
2023-01-01T22:22:29.451Z,974.78
2023-01-01T22:28:07.541Z,974.88
2023-01-01T22:33:39.478Z,974.57
2023-01-01T22:39:11.228Z,974.6
2023-01-01T22:44:43.263Z,974.17
2023-01-01T22:50:14.605Z,974.38
2023-01-01T22:55:46.218Z,974.11
2023-01-01T23:01:18.065Z,974.02
2023-01-01T23:06:49.770Z,973.98
2023-01-01T23:12:21.563Z,974.1
2023-01-01T23:17:53.042Z,974.17
2023-01-01T23:23:24.799Z,974.42
2023-01-01T23:29:01.070Z,974.51
2023-01-01T23:34:32.622Z,974.76
2023-01-01T23:40:04.375Z,974.34
2023-01-01T23:45:36.004Z,974.6
2023-01-01T23:51:07.676Z,974.68
2023-01-01T23:56:39.553Z,973.81
